sensor_id;sensor_type;location;lat;lon;timestamp;temperature;humidity
71155;DHT22;59375;53.216;5.728;2023-02-17T00:00:34;9.20;99.90
71155;DHT22;59375;53.216;5.728;2023-02-17T00:02:59;9.20;99.90
71155;DHT22;59375;53.216;5.728;2023-02-17T00:05:25;9.20;99.90
71155;DHT22;59375;53.216;5.728;2023-02-17T00:07:52;9.20;99.90
71155;DHT22;59375;53.216;5.728;2023-02-17T00:10:17;9.20;99.90
71155;DHT22;59375;53.216;5.728;2023-02-17T00:12:43;9.20;99.90
71155;DHT22;59375;53.216;5.728;2023-02-17T00:15:08;9.20;99.90
71155;DHT22;59375;53.216;5.728;2023-02-17T00:17:34;9.20;99.90
71155;DHT22;59375;53.216;5.728;2023-02-17T00:20:00;9.20;99.90
71155;DHT22;59375;53.216;5.728;2023-02-17T00:22:25;9.20;99.90
71155;DHT22;59375;53.216;5.728;2023-02-17T00:24:51;9.10;99.90
71155;DHT22;59375;53.216;5.728;2023-02-17T00:27:16;9.10;99.90
71155;DHT22;59375;53.216;5.728;2023-02-17T00:29:42;9.10;99.90
71155;DHT22;59375;53.216;5.728;2023-02-17T00:32:07;9.10;99.90
71155;DHT22;59375;53.216;5.728;2023-02-17T00:34:34;9.10;99.90
71155;DHT22;59375;53.216;5.728;2023-02-17T00:37:00;9.00;99.90
71155;DHT22;59375;53.216;5.728;2023-02-17T00:39:25;9.00;99.90
71155;DHT22;59375;53.216;5.728;2023-02-17T00:41:51;9.00;99.90
71155;DHT22;59375;53.216;5.728;2023-02-17T00:44:17;9.00;99.90
71155;DHT22;59375;53.216;5.728;2023-02-17T00:46:43;9.00;99.90
71155;DHT22;59375;53.216;5.728;2023-02-17T00:49:16;9.00;99.90
71155;DHT22;59375;53.216;5.728;2023-02-17T00:51:42;9.00;99.90
71155;DHT22;59375;53.216;5.728;2023-02-17T00:54:08;9.00;99.90
71155;DHT22;59375;53.216;5.728;2023-02-17T00:56:33;9.00;99.90
71155;DHT22;59375;53.216;5.728;2023-02-17T00:58:59;9.00;99.90
71155;DHT22;59375;53.216;5.728;2023-02-17T01:01:24;9.00;99.90
71155;DHT22;59375;53.216;5.728;2023-02-17T01:03:50;9.00;99.90
71155;DHT22;59375;53.216;5.728;2023-02-17T01:06:18;9.00;99.90
71155;DHT22;59375;53.216;5.728;2023-02-17T01:08:45;8.90;99.90
71155;DHT22;59375;53.216;5.728;2023-02-17T01:11:17;8.90;99.90
71155;DHT22;59375;53.216;5.728;2023-02-17T01:13:43;8.90;99.90
71155;DHT22;59375;53.216;5.728;2023-02-17T01:16:15;8.90;99.90
71155;DHT22;59375;53.216;5.728;2023-02-17T01:18:40;8.80;99.90
71155;DHT22;59375;53.216;5.728;2023-02-17T01:21:13;8.80;99.90
71155;DHT22;59375;53.216;5.728;2023-02-17T01:23:39;8.90;99.90
71155;DHT22;59375;53.216;5.728;2023-02-17T01:26:04;8.90;99.90
71155;DHT22;59375;53.216;5.728;2023-02-17T01:28:30;8.90;99.90
71155;DHT22;59375;53.216;5.728;2023-02-17T01:30:56;8.90;99.90
71155;DHT22;59375;53.216;5.728;2023-02-17T01:33:22;8.90;99.90
71155;DHT22;59375;53.216;5.728;2023-02-17T01:35:47;8.90;99.90
71155;DHT22;59375;53.216;5.728;2023-02-17T01:38:12;9.00;99.90
71155;DHT22;59375;53.216;5.728;2023-02-17T01:40:44;9.00;99.90
71155;DHT22;59375;53.216;5.728;2023-02-17T01:43:11;9.00;99.90
71155;DHT22;59375;53.216;5.728;2023-02-17T01:45:45;9.00;99.90
71155;DHT22;59375;53.216;5.728;2023-02-17T01:48:13;9.00;99.90
71155;DHT22;59375;53.216;5.728;2023-02-17T01:50:44;9.00;99.90
71155;DHT22;59375;53.216;5.728;2023-02-17T01:53:11;9.00;99.90
71155;DHT22;59375;53.216;5.728;2023-02-17T01:55:38;9.00;99.90
71155;DHT22;59375;53.216;5.728;2023-02-17T01:58:05;9.00;99.90
71155;DHT22;59375;53.216;5.728;2023-02-17T02:00:32;9.00;99.90
71155;DHT22;59375;53.216;5.728;2023-02-17T02:02:58;9.10;99.90
71155;DHT22;59375;53.216;5.728;2023-02-17T02:05:25;9.00;99.90
71155;DHT22;59375;53.216;5.728;2023-02-17T02:07:50;9.10;99.90
71155;DHT22;59375;53.216;5.728;2023-02-17T02:10:16;9.00;99.90
71155;DHT22;59375;53.216;5.728;2023-02-17T02:12:42;9.00;99.90
71155;DHT22;59375;53.216;5.728;2023-02-17T02:20:14;9.10;99.90
71155;DHT22;59375;53.216;5.728;2023-02-17T02:25:38;9.10;99.90
71155;DHT22;59375;53.216;5.728;2023-02-17T02:33:25;9.10;99.90
71155;DHT22;59375;53.216;5.728;2023-02-17T02:38:34;9.10;99.90
71155;DHT22;59375;53.216;5.728;2023-02-17T02:41:03;9.10;99.90
71155;DHT22;59375;53.216;5.728;2023-02-17T02:43:31;9.10;99.90
71155;DHT22;59375;53.216;5.728;2023-02-17T02:45:56;9.10;99.90
71155;DHT22;59375;53.216;5.728;2023-02-17T02:48:22;9.10;99.90
71155;DHT22;59375;53.216;5.728;2023-02-17T02:58:26;9.10;99.90
71155;DHT22;59375;53.216;5.728;2023-02-17T03:00:58;9.10;99.90
71155;DHT22;59375;53.216;5.728;2023-02-17T03:05:56;9.10;99.90
71155;DHT22;59375;53.216;5.728;2023-02-17T03:10:52;9.10;99.90
71155;DHT22;59375;53.216;5.728;2023-02-17T03:13:18;9.10;99.90
71155;DHT22;59375;53.216;5.728;2023-02-17T03:15:44;9.10;99.90
71155;DHT22;59375;53.216;5.728;2023-02-17T03:18:10;9.10;99.90
71155;DHT22;59375;53.216;5.728;2023-02-17T03:20:36;9.10;99.90
71155;DHT22;59375;53.216;5.728;2023-02-17T03:23:03;9.10;99.90
71155;DHT22;59375;53.216;5.728;2023-02-17T03:25:28;9.10;99.90
71155;DHT22;59375;53.216;5.728;2023-02-17T03:27:54;9.10;99.90
71155;DHT22;59375;53.216;5.728;2023-02-17T03:30:19;9.10;99.90
71155;DHT22;59375;53.216;5.728;2023-02-17T03:32:45;9.10;99.90
71155;DHT22;59375;53.216;5.728;2023-02-17T03:35:11;9.10;99.90
71155;DHT22;59375;53.216;5.728;2023-02-17T03:37:36;9.10;99.90
71155;DHT22;59375;53.216;5.728;2023-02-17T03:40:02;9.10;99.90
71155;DHT22;59375;53.216;5.728;2023-02-17T03:42:28;9.10;99.90
71155;DHT22;59375;53.216;5.728;2023-02-17T03:44:53;9.10;99.90
71155;DHT22;59375;53.216;5.728;2023-02-17T03:47:19;9.10;99.90
71155;DHT22;59375;53.216;5.728;2023-02-17T03:49:44;9.10;99.90
71155;DHT22;59375;53.216;5.728;2023-02-17T03:52:10;9.10;99.90
71155;DHT22;59375;53.216;5.728;2023-02-17T03:54:35;9.10;99.90
71155;DHT22;59375;53.216;5.728;2023-02-17T03:57:01;9.10;99.90
71155;DHT22;59375;53.216;5.728;2023-02-17T03:59:26;9.10;99.90
71155;DHT22;59375;53.216;5.728;2023-02-17T04:01:52;9.10;99.90
71155;DHT22;59375;53.216;5.728;2023-02-17T04:04:17;9.10;99.90
71155;DHT22;59375;53.216;5.728;2023-02-17T04:06:43;9.10;99.90
71155;DHT22;59375;53.216;5.728;2023-02-17T04:09:08;9.10;99.90
71155;DHT22;59375;53.216;5.728;2023-02-17T04:11:34;9.10;99.90
71155;DHT22;59375;53.216;5.728;2023-02-17T04:13:59;9.00;99.90
71155;DHT22;59375;53.216;5.728;2023-02-17T04:16:25;9.00;99.90
71155;DHT22;59375;53.216;5.728;2023-02-17T04:18:50;9.00;99.90
71155;DHT22;59375;53.216;5.728;2023-02-17T04:21:16;9.00;99.90
71155;DHT22;59375;53.216;5.728;2023-02-17T04:23:41;9.00;99.90
71155;DHT22;59375;53.216;5.728;2023-02-17T04:26:07;9.00;99.90
71155;DHT22;59375;53.216;5.728;2023-02-17T04:28:33;9.00;99.90
71155;DHT22;59375;53.216;5.728;2023-02-17T04:30:58;9.00;99.90
71155;DHT22;59375;53.216;5.728;2023-02-17T04:33:24;9.00;99.90
71155;DHT22;59375;53.216;5.728;2023-02-17T04:35:49;9.00;99.90
71155;DHT22;59375;53.216;5.728;2023-02-17T04:38:15;9.00;99.90
71155;DHT22;59375;53.216;5.728;2023-02-17T04:40:41;9.00;99.90
71155;DHT22;59375;53.216;5.728;2023-02-17T04:43:06;9.00;99.90
71155;DHT22;59375;53.216;5.728;2023-02-17T04:45:33;9.00;99.90
71155;DHT22;59375;53.216;5.728;2023-02-17T04:47:58;9.10;99.90
71155;DHT22;59375;53.216;5.728;2023-02-17T04:50:24;9.10;99.90
71155;DHT22;59375;53.216;5.728;2023-02-17T04:52:49;9.00;99.90
71155;DHT22;59375;53.216;5.728;2023-02-17T04:55:15;9.10;99.90
71155;DHT22;59375;53.216;5.728;2023-02-17T04:57:40;9.10;99.90
71155;DHT22;59375;53.216;5.728;2023-02-17T05:00:06;9.10;99.90
71155;DHT22;59375;53.216;5.728;2023-02-17T05:02:32;9.10;99.90
71155;DHT22;59375;53.216;5.728;2023-02-17T05:04:58;9.10;99.90
71155;DHT22;59375;53.216;5.728;2023-02-17T05:07:23;9.20;99.90
71155;DHT22;59375;53.216;5.728;2023-02-17T05:09:48;9.20;99.90
71155;DHT22;59375;53.216;5.728;2023-02-17T05:12:14;9.20;99.90
71155;DHT22;59375;53.216;5.728;2023-02-17T05:14:39;9.20;99.90
71155;DHT22;59375;53.216;5.728;2023-02-17T05:17:05;9.20;99.90
71155;DHT22;59375;53.216;5.728;2023-02-17T05:19:31;9.20;99.90
71155;DHT22;59375;53.216;5.728;2023-02-17T05:21:56;9.20;99.90
71155;DHT22;59375;53.216;5.728;2023-02-17T05:24:22;9.20;99.90
71155;DHT22;59375;53.216;5.728;2023-02-17T05:26:47;9.20;99.90
71155;DHT22;59375;53.216;5.728;2023-02-17T05:29:13;9.20;99.90
71155;DHT22;59375;53.216;5.728;2023-02-17T05:31:38;9.20;99.90
71155;DHT22;59375;53.216;5.728;2023-02-17T05:34:04;9.20;99.90
71155;DHT22;59375;53.216;5.728;2023-02-17T05:36:29;9.30;99.90
71155;DHT22;59375;53.216;5.728;2023-02-17T05:38:55;9.20;99.90
71155;DHT22;59375;53.216;5.728;2023-02-17T05:41:20;9.20;99.90
71155;DHT22;59375;53.216;5.728;2023-02-17T05:43:46;9.20;99.90
71155;DHT22;59375;53.216;5.728;2023-02-17T05:46:12;9.30;99.90
71155;DHT22;59375;53.216;5.728;2023-02-17T05:48:37;9.20;99.90
71155;DHT22;59375;53.216;5.728;2023-02-17T05:51:03;9.20;99.90
71155;DHT22;59375;53.216;5.728;2023-02-17T05:53:28;9.30;99.90
71155;DHT22;59375;53.216;5.728;2023-02-17T05:55:54;9.30;99.90
71155;DHT22;59375;53.216;5.728;2023-02-17T05:58:19;9.30;99.90
71155;DHT22;59375;53.216;5.728;2023-02-17T06:00:45;9.30;99.90
71155;DHT22;59375;53.216;5.728;2023-02-17T06:03:11;9.30;99.90
71155;DHT22;59375;53.216;5.728;2023-02-17T06:05:36;9.30;99.90
71155;DHT22;59375;53.216;5.728;2023-02-17T06:08:02;9.30;99.90
71155;DHT22;59375;53.216;5.728;2023-02-17T06:10:27;9.30;99.90
71155;DHT22;59375;53.216;5.728;2023-02-17T06:12:53;9.30;99.90
71155;DHT22;59375;53.216;5.728;2023-02-17T06:15:18;9.40;99.90
71155;DHT22;59375;53.216;5.728;2023-02-17T06:17:44;9.40;99.90
71155;DHT22;59375;53.216;5.728;2023-02-17T06:20:09;9.40;99.90
71155;DHT22;59375;53.216;5.728;2023-02-17T06:22:35;9.40;99.90
71155;DHT22;59375;53.216;5.728;2023-02-17T06:25:00;9.40;99.90
71155;DHT22;59375;53.216;5.728;2023-02-17T06:27:26;9.40;99.90
71155;DHT22;59375;53.216;5.728;2023-02-17T06:29:51;9.40;99.90
71155;DHT22;59375;53.216;5.728;2023-02-17T06:32:17;9.50;99.90
71155;DHT22;59375;53.216;5.728;2023-02-17T06:34:42;9.50;99.90
71155;DHT22;59375;53.216;5.728;2023-02-17T06:37:08;9.50;99.90
71155;DHT22;59375;53.216;5.728;2023-02-17T06:39:33;9.50;99.90
71155;DHT22;59375;53.216;5.728;2023-02-17T06:41:59;9.50;99.90
71155;DHT22;59375;53.216;5.728;2023-02-17T06:44:24;9.50;99.90
71155;DHT22;59375;53.216;5.728;2023-02-17T06:46:50;9.60;99.90
71155;DHT22;59375;53.216;5.728;2023-02-17T06:49:15;9.60;99.90
71155;DHT22;59375;53.216;5.728;2023-02-17T06:51:41;9.60;99.90
71155;DHT22;59375;53.216;5.728;2023-02-17T06:54:06;9.60;99.90
71155;DHT22;59375;53.216;5.728;2023-02-17T06:56:32;9.60;99.90
71155;DHT22;59375;53.216;5.728;2023-02-17T06:58:57;9.60;99.90
71155;DHT22;59375;53.216;5.728;2023-02-17T07:01:24;9.60;99.90
71155;DHT22;59375;53.216;5.728;2023-02-17T07:03:53;9.60;99.90
71155;DHT22;59375;53.216;5.728;2023-02-17T07:06:19;9.70;99.90
71155;DHT22;59375;53.216;5.728;2023-02-17T07:08:45;9.70;99.90
71155;DHT22;59375;53.216;5.728;2023-02-17T07:11:11;9.70;99.90
71155;DHT22;59375;53.216;5.728;2023-02-17T07:13:37;9.70;99.90
71155;DHT22;59375;53.216;5.728;2023-02-17T07:16:03;9.70;99.90
71155;DHT22;59375;53.216;5.728;2023-02-17T07:18:28;9.70;99.90
71155;DHT22;59375;53.216;5.728;2023-02-17T07:20:54;9.70;99.90
71155;DHT22;59375;53.216;5.728;2023-02-17T07:23:19;9.70;99.90
71155;DHT22;59375;53.216;5.728;2023-02-17T07:25:44;9.70;99.90
71155;DHT22;59375;53.216;5.728;2023-02-17T07:28:10;9.80;99.90
71155;DHT22;59375;53.216;5.728;2023-02-17T07:30:36;9.70;99.90
71155;DHT22;59375;53.216;5.728;2023-02-17T07:33:02;9.80;99.90
71155;DHT22;59375;53.216;5.728;2023-02-17T07:35:28;9.80;99.90
71155;DHT22;59375;53.216;5.728;2023-02-17T07:37:55;9.80;99.90
71155;DHT22;59375;53.216;5.728;2023-02-17T07:40:20;9.80;99.90
71155;DHT22;59375;53.216;5.728;2023-02-17T07:42:46;9.80;99.90
71155;DHT22;59375;53.216;5.728;2023-02-17T07:45:11;9.80;99.90
71155;DHT22;59375;53.216;5.728;2023-02-17T07:47:37;9.90;99.90
71155;DHT22;59375;53.216;5.728;2023-02-17T07:50:02;9.80;99.90
71155;DHT22;59375;53.216;5.728;2023-02-17T07:52:28;9.90;99.90
71155;DHT22;59375;53.216;5.728;2023-02-17T07:54:53;9.90;99.90
71155;DHT22;59375;53.216;5.728;2023-02-17T07:57:19;9.90;99.90
71155;DHT22;59375;53.216;5.728;2023-02-17T07:59:45;9.90;99.90
71155;DHT22;59375;53.216;5.728;2023-02-17T08:02:10;9.90;99.90
71155;DHT22;59375;53.216;5.728;2023-02-17T08:04:36;10.00;99.90
71155;DHT22;59375;53.216;5.728;2023-02-17T08:07:02;9.90;99.90
71155;DHT22;59375;53.216;5.728;2023-02-17T08:09:27;10.00;99.90
71155;DHT22;59375;53.216;5.728;2023-02-17T08:12:15;10.00;99.90
71155;DHT22;59375;53.216;5.728;2023-02-17T08:15:01;10.00;99.90
71155;DHT22;59375;53.216;5.728;2023-02-17T08:17:27;10.00;99.90
71155;DHT22;59375;53.216;5.728;2023-02-17T08:19:55;10.00;99.90
71155;DHT22;59375;53.216;5.728;2023-02-17T08:22:21;10.10;99.90
71155;DHT22;59375;53.216;5.728;2023-02-17T08:24:46;10.10;99.90
71155;DHT22;59375;53.216;5.728;2023-02-17T08:27:13;10.10;99.90
71155;DHT22;59375;53.216;5.728;2023-02-17T08:29:38;10.10;99.90
71155;DHT22;59375;53.216;5.728;2023-02-17T08:32:04;10.10;99.90
71155;DHT22;59375;53.216;5.728;2023-02-17T08:34:30;10.10;99.90
71155;DHT22;59375;53.216;5.728;2023-02-17T08:36:59;10.20;99.90
71155;DHT22;59375;53.216;5.728;2023-02-17T08:39:25;10.20;99.90
71155;DHT22;59375;53.216;5.728;2023-02-17T08:41:51;10.20;99.90
71155;DHT22;59375;53.216;5.728;2023-02-17T08:44:17;10.20;99.90
71155;DHT22;59375;53.216;5.728;2023-02-17T08:46:43;10.20;99.90
71155;DHT22;59375;53.216;5.728;2023-02-17T08:49:09;10.20;99.90
71155;DHT22;59375;53.216;5.728;2023-02-17T08:51:35;10.20;99.90
71155;DHT22;59375;53.216;5.728;2023-02-17T08:54:02;10.20;99.90
71155;DHT22;59375;53.216;5.728;2023-02-17T08:56:29;10.20;99.90
71155;DHT22;59375;53.216;5.728;2023-02-17T08:58:55;10.20;99.90
71155;DHT22;59375;53.216;5.728;2023-02-17T09:01:20;10.20;99.90
71155;DHT22;59375;53.216;5.728;2023-02-17T09:03:47;10.20;99.90
71155;DHT22;59375;53.216;5.728;2023-02-17T09:06:13;10.30;99.90
71155;DHT22;59375;53.216;5.728;2023-02-17T09:08:40;10.30;99.90
71155;DHT22;59375;53.216;5.728;2023-02-17T09:11:06;10.30;99.90
71155;DHT22;59375;53.216;5.728;2023-02-17T09:13:32;10.40;99.90
71155;DHT22;59375;53.216;5.728;2023-02-17T09:15:57;10.40;99.90
71155;DHT22;59375;53.216;5.728;2023-02-17T09:18:23;10.40;99.90
71155;DHT22;59375;53.216;5.728;2023-02-17T09:20:49;10.40;99.90
71155;DHT22;59375;53.216;5.728;2023-02-17T09:23:15;10.40;99.90
71155;DHT22;59375;53.216;5.728;2023-02-17T09:25:40;10.50;99.90
71155;DHT22;59375;53.216;5.728;2023-02-17T09:28:06;10.50;99.90
71155;DHT22;59375;53.216;5.728;2023-02-17T09:30:31;10.50;99.90
71155;DHT22;59375;53.216;5.728;2023-02-17T09:32:57;10.50;99.90
71155;DHT22;59375;53.216;5.728;2023-02-17T09:35:23;10.50;99.90
71155;DHT22;59375;53.216;5.728;2023-02-17T09:37:48;10.50;99.90
71155;DHT22;59375;53.216;5.728;2023-02-17T09:40:15;10.50;99.90
71155;DHT22;59375;53.216;5.728;2023-02-17T09:42:41;10.50;99.90
71155;DHT22;59375;53.216;5.728;2023-02-17T09:45:09;10.50;99.90
71155;DHT22;59375;53.216;5.728;2023-02-17T09:50:39;10.50;99.90
71155;DHT22;59375;53.216;5.728;2023-02-17T09:53:23;10.60;99.90
71155;DHT22;59375;53.216;5.728;2023-02-17T09:55:52;10.60;99.90
71155;DHT22;59375;53.216;5.728;2023-02-17T10:00:47;10.60;99.90
71155;DHT22;59375;53.216;5.728;2023-02-17T10:03:18;10.60;99.90
71155;DHT22;59375;53.216;5.728;2023-02-17T10:05:46;10.60;99.90
71155;DHT22;59375;53.216;5.728;2023-02-17T10:08:15;10.60;99.90
71155;DHT22;59375;53.216;5.728;2023-02-17T10:13:13;10.60;99.90
71155;DHT22;59375;53.216;5.728;2023-02-17T10:15:42;10.70;99.90
71155;DHT22;59375;53.216;5.728;2023-02-17T10:18:16;10.60;99.90
71155;DHT22;59375;53.216;5.728;2023-02-17T10:20:45;10.60;99.90
71155;DHT22;59375;53.216;5.728;2023-02-17T10:23:24;10.70;99.90
71155;DHT22;59375;53.216;5.728;2023-02-17T10:25:56;10.60;99.90
71155;DHT22;59375;53.216;5.728;2023-02-17T10:28:34;10.60;99.90
71155;DHT22;59375;53.216;5.728;2023-02-17T10:31:04;10.60;99.90
71155;DHT22;59375;53.216;5.728;2023-02-17T10:33:33;10.60;99.90
71155;DHT22;59375;53.216;5.728;2023-02-17T10:38:44;10.60;99.90
71155;DHT22;59375;53.216;5.728;2023-02-17T10:41:19;10.60;99.90
71155;DHT22;59375;53.216;5.728;2023-02-17T10:43:45;10.60;99.90
71155;DHT22;59375;53.216;5.728;2023-02-17T10:46:11;10.60;99.90
71155;DHT22;59375;53.216;5.728;2023-02-17T10:48:47;10.60;99.90
71155;DHT22;59375;53.216;5.728;2023-02-17T10:51:15;10.60;99.90
71155;DHT22;59375;53.216;5.728;2023-02-17T10:53:43;10.60;99.90
71155;DHT22;59375;53.216;5.728;2023-02-17T10:56:14;10.60;99.90
71155;DHT22;59375;53.216;5.728;2023-02-17T11:01:07;10.70;99.90
71155;DHT22;59375;53.216;5.728;2023-02-17T11:03:33;10.70;99.90
71155;DHT22;59375;53.216;5.728;2023-02-17T11:06:04;10.70;99.90
71155;DHT22;59375;53.216;5.728;2023-02-17T11:08:36;10.70;99.90
71155;DHT22;59375;53.216;5.728;2023-02-17T11:11:05;10.80;99.90
71155;DHT22;59375;53.216;5.728;2023-02-17T11:13:36;10.80;99.90
71155;DHT22;59375;53.216;5.728;2023-02-17T11:16:01;10.80;99.90
71155;DHT22;59375;53.216;5.728;2023-02-17T11:18:28;10.90;99.90
71155;DHT22;59375;53.216;5.728;2023-02-17T11:20:59;11.00;99.90
71155;DHT22;59375;53.216;5.728;2023-02-17T11:23:25;11.10;99.90
71155;DHT22;59375;53.216;5.728;2023-02-17T11:25:54;11.10;99.90
71155;DHT22;59375;53.216;5.728;2023-02-17T11:28:21;11.20;99.90
71155;DHT22;59375;53.216;5.728;2023-02-17T11:30:49;11.30;99.90
71155;DHT22;59375;53.216;5.728;2023-02-17T11:33:18;11.50;99.90
71155;DHT22;59375;53.216;5.728;2023-02-17T11:35:48;11.50;99.90
71155;DHT22;59375;53.216;5.728;2023-02-17T11:38:59;11.60;99.90
71155;DHT22;59375;53.216;5.728;2023-02-17T11:41:01;11.60;99.90
71155;DHT22;59375;53.216;5.728;2023-02-17T11:43:27;11.60;99.90
71155;DHT22;59375;53.216;5.728;2023-02-17T11:50:59;11.90;99.90
71155;DHT22;59375;53.216;5.728;2023-02-17T11:58:36;11.80;99.90
71155;DHT22;59375;53.216;5.728;2023-02-17T12:01:18;11.90;99.90
71155;DHT22;59375;53.216;5.728;2023-02-17T12:03:53;12.00;99.90
71155;DHT22;59375;53.216;5.728;2023-02-17T12:09:12;12.40;99.90
71155;DHT22;59375;53.216;5.728;2023-02-17T12:11:43;12.60;99.90
71155;DHT22;59375;53.216;5.728;2023-02-17T12:16:50;13.10;99.90
71155;DHT22;59375;53.216;5.728;2023-02-17T12:22:08;13.40;99.90
71155;DHT22;59375;53.216;5.728;2023-02-17T12:30:12;13.20;99.90
71155;DHT22;59375;53.216;5.728;2023-02-17T12:35:26;12.80;99.90
71155;DHT22;59375;53.216;5.728;2023-02-17T12:37:57;12.60;99.90
71155;DHT22;59375;53.216;5.728;2023-02-17T12:42:54;12.30;99.90
71155;DHT22;59375;53.216;5.728;2023-02-17T12:45:34;12.20;99.90
71155;DHT22;59375;53.216;5.728;2023-02-17T12:48:21;12.20;99.90
71155;DHT22;59375;53.216;5.728;2023-02-17T12:53:16;12.40;99.90
71155;DHT22;59375;53.216;5.728;2023-02-17T12:55:43;12.50;99.90
71155;DHT22;59375;53.216;5.728;2023-02-17T12:58:18;12.60;99.90
71155;DHT22;59375;53.216;5.728;2023-02-17T13:01:04;12.60;99.90
71155;DHT22;59375;53.216;5.728;2023-02-17T13:03:31;12.60;99.90
71155;DHT22;59375;53.216;5.728;2023-02-17T13:08:42;12.50;99.90
71155;DHT22;59375;53.216;5.728;2023-02-17T13:11:12;12.40;99.90
71155;DHT22;59375;53.216;5.728;2023-02-17T13:13:37;12.40;99.90
71155;DHT22;59375;53.216;5.728;2023-02-17T13:16:07;12.30;99.90
71155;DHT22;59375;53.216;5.728;2023-02-17T13:18:45;12.30;99.90
71155;DHT22;59375;53.216;5.728;2023-02-17T13:24:11;12.40;99.90
71155;DHT22;59375;53.216;5.728;2023-02-17T13:26:36;12.40;99.90
71155;DHT22;59375;53.216;5.728;2023-02-17T13:29:44;12.40;99.90
71155;DHT22;59375;53.216;5.728;2023-02-17T13:31:53;12.40;99.90
71155;DHT22;59375;53.216;5.728;2023-02-17T13:34:27;12.40;99.90
71155;DHT22;59375;53.216;5.728;2023-02-17T13:36:52;12.40;99.90
71155;DHT22;59375;53.216;5.728;2023-02-17T13:41:50;12.60;99.90
71155;DHT22;59375;53.216;5.728;2023-02-17T13:46:47;13.00;99.90
71155;DHT22;59375;53.216;5.728;2023-02-17T13:49:18;13.60;99.90
71155;DHT22;59375;53.216;5.728;2023-02-17T13:51:44;14.00;99.90
71155;DHT22;59375;53.216;5.728;2023-02-17T13:54:10;14.10;99.90
71155;DHT22;59375;53.216;5.728;2023-02-17T13:56:36;13.80;99.90
71155;DHT22;59375;53.216;5.728;2023-02-17T13:59:09;13.40;99.90
71155;DHT22;59375;53.216;5.728;2023-02-17T14:01:35;13.00;99.90
71155;DHT22;59375;53.216;5.728;2023-02-17T14:04:01;12.70;99.90
71155;DHT22;59375;53.216;5.728;2023-02-17T14:06:35;12.40;99.90
71155;DHT22;59375;53.216;5.728;2023-02-17T14:11:46;12.00;99.90
71155;DHT22;59375;53.216;5.728;2023-02-17T14:14:12;11.80;99.90
71155;DHT22;59375;53.216;5.728;2023-02-17T14:16:39;11.70;99.90
71155;DHT22;59375;53.216;5.728;2023-02-17T14:19:15;11.70;99.90
71155;DHT22;59375;53.216;5.728;2023-02-17T14:21:42;11.80;99.90
71155;DHT22;59375;53.216;5.728;2023-02-17T14:24:22;12.30;99.90
71155;DHT22;59375;53.216;5.728;2023-02-17T14:26:48;12.80;99.90
71155;DHT22;59375;53.216;5.728;2023-02-17T14:29:13;13.20;99.90
71155;DHT22;59375;53.216;5.728;2023-02-17T14:31:44;13.40;99.90
71155;DHT22;59375;53.216;5.728;2023-02-17T14:34:28;13.50;99.90
71155;DHT22;59375;53.216;5.728;2023-02-17T14:36:56;13.60;99.90
71155;DHT22;59375;53.216;5.728;2023-02-17T14:39:30;13.60;99.90
71155;DHT22;59375;53.216;5.728;2023-02-17T14:41:56;13.30;99.90
71155;DHT22;59375;53.216;5.728;2023-02-17T14:44:21;13.00;99.90
71155;DHT22;59375;53.216;5.728;2023-02-17T14:46:47;12.70;99.90
71155;DHT22;59375;53.216;5.728;2023-02-17T14:49:12;12.50;99.90
71155;DHT22;59375;53.216;5.728;2023-02-17T14:51:38;12.30;99.90
71155;DHT22;59375;53.216;5.728;2023-02-17T14:54:09;12.10;99.90
71155;DHT22;59375;53.216;5.728;2023-02-17T14:56:37;12.10;99.90
71155;DHT22;59375;53.216;5.728;2023-02-17T14:59:04;11.90;99.90
71155;DHT22;59375;53.216;5.728;2023-02-17T15:01:30;11.90;99.90
71155;DHT22;59375;53.216;5.728;2023-02-17T15:03:55;11.80;99.90
71155;DHT22;59375;53.216;5.728;2023-02-17T15:06:22;11.70;99.90
71155;DHT22;59375;53.216;5.728;2023-02-17T15:08:48;11.70;99.90
71155;DHT22;59375;53.216;5.728;2023-02-17T15:11:15;11.50;99.90
71155;DHT22;59375;53.216;5.728;2023-02-17T15:13:42;11.50;99.90
71155;DHT22;59375;53.216;5.728;2023-02-17T15:16:07;11.40;99.90
71155;DHT22;59375;53.216;5.728;2023-02-17T15:18:33;11.40;99.90
71155;DHT22;59375;53.216;5.728;2023-02-17T15:20:58;11.40;99.90
71155;DHT22;59375;53.216;5.728;2023-02-17T15:23:24;11.30;99.90
71155;DHT22;59375;53.216;5.728;2023-02-17T15:25:53;11.20;99.90
71155;DHT22;59375;53.216;5.728;2023-02-17T15:28:20;11.20;99.90
71155;DHT22;59375;53.216;5.728;2023-02-17T15:30:52;11.10;99.90
71155;DHT22;59375;53.216;5.728;2023-02-17T15:33:19;11.10;99.90
71155;DHT22;59375;53.216;5.728;2023-02-17T15:35:45;11.00;99.90
71155;DHT22;59375;53.216;5.728;2023-02-17T15:38:11;10.90;99.90
71155;DHT22;59375;53.216;5.728;2023-02-17T15:40:37;10.80;99.90
71155;DHT22;59375;53.216;5.728;2023-02-17T15:43:03;10.80;99.90
71155;DHT22;59375;53.216;5.728;2023-02-17T15:45:28;10.70;99.90
71155;DHT22;59375;53.216;5.728;2023-02-17T15:50:26;10.70;99.90
71155;DHT22;59375;53.216;5.728;2023-02-17T15:52:51;10.60;99.90
71155;DHT22;59375;53.216;5.728;2023-02-17T15:55:17;10.60;99.90
71155;DHT22;59375;53.216;5.728;2023-02-17T15:57:44;10.50;99.90
71155;DHT22;59375;53.216;5.728;2023-02-17T16:00:18;10.40;99.90
71155;DHT22;59375;53.216;5.728;2023-02-17T16:02:44;10.30;99.90
71155;DHT22;59375;53.216;5.728;2023-02-17T16:05:11;10.30;99.90
71155;DHT22;59375;53.216;5.728;2023-02-17T16:07:36;10.20;99.90
71155;DHT22;59375;53.216;5.728;2023-02-17T16:10:02;10.10;99.90
71155;DHT22;59375;53.216;5.728;2023-02-17T16:12:28;10.10;99.90
71155;DHT22;59375;53.216;5.728;2023-02-17T16:14:54;10.10;99.90
71155;DHT22;59375;53.216;5.728;2023-02-17T16:17:19;10.00;99.90
71155;DHT22;59375;53.216;5.728;2023-02-17T16:19:45;9.90;99.90
71155;DHT22;59375;53.216;5.728;2023-02-17T16:22:10;9.80;99.90
71155;DHT22;59375;53.216;5.728;2023-02-17T16:24:36;9.80;99.90
71155;DHT22;59375;53.216;5.728;2023-02-17T16:27:01;9.70;99.90
71155;DHT22;59375;53.216;5.728;2023-02-17T16:29:27;9.70;99.90
71155;DHT22;59375;53.216;5.728;2023-02-17T16:31:52;9.70;99.90
71155;DHT22;59375;53.216;5.728;2023-02-17T16:34:20;9.60;99.90
71155;DHT22;59375;53.216;5.728;2023-02-17T16:36:46;9.60;99.90
71155;DHT22;59375;53.216;5.728;2023-02-17T16:39:14;9.50;99.90
71155;DHT22;59375;53.216;5.728;2023-02-17T16:41:39;9.50;99.90
71155;DHT22;59375;53.216;5.728;2023-02-17T16:44:05;9.40;99.90
71155;DHT22;59375;53.216;5.728;2023-02-17T16:46:32;9.30;99.90
71155;DHT22;59375;53.216;5.728;2023-02-17T16:48:59;9.30;99.90
71155;DHT22;59375;53.216;5.728;2023-02-17T16:51:24;9.30;99.90
71155;DHT22;59375;53.216;5.728;2023-02-17T16:53:50;9.20;99.90
71155;DHT22;59375;53.216;5.728;2023-02-17T16:56:38;9.20;99.90
71155;DHT22;59375;53.216;5.728;2023-02-17T16:59:01;9.20;99.90
71155;DHT22;59375;53.216;5.728;2023-02-17T17:01:27;9.10;99.90
71155;DHT22;59375;53.216;5.728;2023-02-17T17:03:52;9.10;99.90
71155;DHT22;59375;53.216;5.728;2023-02-17T17:06:24;9.00;99.90
71155;DHT22;59375;53.216;5.728;2023-02-17T17:08:50;9.00;99.90